sensor_id;sensor_type;location;lat;lon;timestamp;temperature;humidity
18287;DHT22;9269;50.838;12.094;2024-03-02T00:01:55;9.50;61.90
18287;DHT22;9269;50.838;12.094;2024-03-02T00:04:23;9.40;61.90
18287;DHT22;9269;50.838;12.094;2024-03-02T00:06:53;9.50;61.60
18287;DHT22;9269;50.838;12.094;2024-03-02T00:09:42;9.50;61.80
18287;DHT22;9269;50.838;12.094;2024-03-02T00:12:15;9.50;61.60
18287;DHT22;9269;50.838;12.094;2024-03-02T00:14:44;9.50;61.80
18287;DHT22;9269;50.838;12.094;2024-03-02T00:20:53;9.60;61.60
18287;DHT22;9269;50.838;12.094;2024-03-02T00:23:24;9.50;61.70
18287;DHT22;9269;50.838;12.094;2024-03-02T00:25:54;9.40;61.40
18287;DHT22;9269;50.838;12.094;2024-03-02T00:28:41;9.50;61.70
18287;DHT22;9269;50.838;12.094;2024-03-02T00:31:32;9.50;61.30
18287;DHT22;9269;50.838;12.094;2024-03-02T00:34:04;9.50;61.40
18287;DHT22;9269;50.838;12.094;2024-03-02T00:36:36;9.50;61.30
18287;DHT22;9269;50.838;12.094;2024-03-02T00:39:12;9.30;61.70
18287;DHT22;9269;50.838;12.094;2024-03-02T00:41:44;9.40;61.70
18287;DHT22;9269;50.838;12.094;2024-03-02T00:44:13;9.40;61.70
18287;DHT22;9269;50.838;12.094;2024-03-02T00:46:43;9.40;61.30
18287;DHT22;9269;50.838;12.094;2024-03-02T00:49:28;9.50;61.70
18287;DHT22;9269;50.838;12.094;2024-03-02T00:51:57;9.40;61.70
18287;DHT22;9269;50.838;12.094;2024-03-02T00:54:30;9.40;61.60
18287;DHT22;9269;50.838;12.094;2024-03-02T00:56:59;9.40;61.40
18287;DHT22;9269;50.838;12.094;2024-03-02T00:59:30;9.50;61.40
18287;DHT22;9269;50.838;12.094;2024-03-02T01:02:00;9.40;61.60
18287;DHT22;9269;50.838;12.094;2024-03-02T01:04:29;9.30;61.50
18287;DHT22;9269;50.838;12.094;2024-03-02T01:06:57;9.30;61.40
18287;DHT22;9269;50.838;12.094;2024-03-02T01:09:26;9.40;61.20
18287;DHT22;9269;50.838;12.094;2024-03-02T01:11:56;9.30;61.30
18287;DHT22;9269;50.838;12.094;2024-03-02T01:14:24;9.30;61.40
18287;DHT22;9269;50.838;12.094;2024-03-02T01:16:54;9.20;61.40
18287;DHT22;9269;50.838;12.094;2024-03-02T01:19:24;9.30;61.70
18287;DHT22;9269;50.838;12.094;2024-03-02T01:21:53;9.30;61.30
18287;DHT22;9269;50.838;12.094;2024-03-02T01:24:24;9.30;61.60
18287;DHT22;9269;50.838;12.094;2024-03-02T01:26:53;9.30;61.60
18287;DHT22;9269;50.838;12.094;2024-03-02T01:29:23;9.20;61.40
18287;DHT22;9269;50.838;12.094;2024-03-02T01:31:51;9.00;61.60
18287;DHT22;9269;50.838;12.094;2024-03-02T01:34:21;9.20;61.30
18287;DHT22;9269;50.838;12.094;2024-03-02T01:37:05;9.10;61.30
18287;DHT22;9269;50.838;12.094;2024-03-02T01:39:35;9.20;61.80
18287;DHT22;9269;50.838;12.094;2024-03-02T01:42:06;9.20;61.60
18287;DHT22;9269;50.838;12.094;2024-03-02T01:44:39;9.10;61.60
18287;DHT22;9269;50.838;12.094;2024-03-02T01:47:11;9.10;61.80
18287;DHT22;9269;50.838;12.094;2024-03-02T01:49:39;9.10;61.90
18287;DHT22;9269;50.838;12.094;2024-03-02T01:52:08;8.90;61.50
18287;DHT22;9269;50.838;12.094;2024-03-02T01:54:36;9.00;61.60
18287;DHT22;9269;50.838;12.094;2024-03-02T01:57:05;9.00;61.90
18287;DHT22;9269;50.838;12.094;2024-03-02T01:59:36;9.00;61.80
18287;DHT22;9269;50.838;12.094;2024-03-02T02:02:07;9.00;61.80
18287;DHT22;9269;50.838;12.094;2024-03-02T02:04:36;9.00;61.90
18287;DHT22;9269;50.838;12.094;2024-03-02T02:07:06;8.90;61.50
18287;DHT22;9269;50.838;12.094;2024-03-02T02:09:34;8.90;61.70
18287;DHT22;9269;50.838;12.094;2024-03-02T02:12:03;9.00;61.70
18287;DHT22;9269;50.838;12.094;2024-03-02T02:14:33;9.00;61.80
18287;DHT22;9269;50.838;12.094;2024-03-02T02:17:02;8.80;61.80
18287;DHT22;9269;50.838;12.094;2024-03-02T02:19:32;9.00;61.80
18287;DHT22;9269;50.838;12.094;2024-03-02T02:22:04;8.90;61.90
18287;DHT22;9269;50.838;12.094;2024-03-02T02:24:34;9.00;62.00
18287;DHT22;9269;50.838;12.094;2024-03-02T02:27:05;9.10;62.30
18287;DHT22;9269;50.838;12.094;2024-03-02T02:29:36;9.00;62.10
18287;DHT22;9269;50.838;12.094;2024-03-02T02:32:05;8.90;61.80
18287;DHT22;9269;50.838;12.094;2024-03-02T02:34:33;9.00;61.90
18287;DHT22;9269;50.838;12.094;2024-03-02T02:37:03;9.00;61.70
18287;DHT22;9269;50.838;12.094;2024-03-02T02:39:32;8.90;61.50
18287;DHT22;9269;50.838;12.094;2024-03-02T02:42:20;9.00;62.00
18287;DHT22;9269;50.838;12.094;2024-03-02T02:44:51;9.00;61.90
18287;DHT22;9269;50.838;12.094;2024-03-02T02:47:23;9.00;62.20
18287;DHT22;9269;50.838;12.094;2024-03-02T02:49:54;9.00;61.90
18287;DHT22;9269;50.838;12.094;2024-03-02T02:52:25;9.00;61.70
18287;DHT22;9269;50.838;12.094;2024-03-02T02:54:53;9.00;62.00
18287;DHT22;9269;50.838;12.094;2024-03-02T02:57:22;8.90;61.90
18287;DHT22;9269;50.838;12.094;2024-03-02T02:59:50;8.80;62.00
18287;DHT22;9269;50.838;12.094;2024-03-02T03:02:19;9.00;62.20
18287;DHT22;9269;50.838;12.094;2024-03-02T03:04:50;8.90;61.90
18287;DHT22;9269;50.838;12.094;2024-03-02T03:07:21;8.90;61.80
18287;DHT22;9269;50.838;12.094;2024-03-02T03:09:54;9.00;61.80
18287;DHT22;9269;50.838;12.094;2024-03-02T03:12:25;8.80;61.90
18287;DHT22;9269;50.838;12.094;2024-03-02T03:14:54;8.90;61.80
18287;DHT22;9269;50.838;12.094;2024-03-02T03:17:23;8.90;62.40
18287;DHT22;9269;50.838;12.094;2024-03-02T03:19:52;9.00;61.90
18287;DHT22;9269;50.838;12.094;2024-03-02T03:22:19;9.00;62.20
18287;DHT22;9269;50.838;12.094;2024-03-02T03:24:47;9.00;62.30
18287;DHT22;9269;50.838;12.094;2024-03-02T03:27:36;9.00;62.10
18287;DHT22;9269;50.838;12.094;2024-03-02T03:30:08;9.00;62.30
18287;DHT22;9269;50.838;12.094;2024-03-02T03:32:39;9.00;62.40
18287;DHT22;9269;50.838;12.094;2024-03-02T03:35:09;9.00;62.20
18287;DHT22;9269;50.838;12.094;2024-03-02T03:37:37;8.90;62.50
18287;DHT22;9269;50.838;12.094;2024-03-02T03:40:06;8.90;62.30
18287;DHT22;9269;50.838;12.094;2024-03-02T03:42:39;9.00;62.60
18287;DHT22;9269;50.838;12.094;2024-03-02T03:45:08;8.90;62.70
18287;DHT22;9269;50.838;12.094;2024-03-02T03:47:56;9.00;62.70
18287;DHT22;9269;50.838;12.094;2024-03-02T03:50:25;8.90;63.00
18287;DHT22;9269;50.838;12.094;2024-03-02T03:52:56;8.90;62.90
18287;DHT22;9269;50.838;12.094;2024-03-02T03:55:25;8.80;63.00
18287;DHT22;9269;50.838;12.094;2024-03-02T03:57:57;9.00;63.00
18287;DHT22;9269;50.838;12.094;2024-03-02T04:00:26;9.00;62.80
18287;DHT22;9269;50.838;12.094;2024-03-02T04:02:55;9.00;63.30
18287;DHT22;9269;50.838;12.094;2024-03-02T04:05:24;9.10;63.20
18287;DHT22;9269;50.838;12.094;2024-03-02T04:07:52;9.00;63.20
18287;DHT22;9269;50.838;12.094;2024-03-02T04:10:23;9.10;63.20
18287;DHT22;9269;50.838;12.094;2024-03-02T04:12:55;9.10;63.30
18287;DHT22;9269;50.838;12.094;2024-03-02T04:15:28;9.00;63.40
18287;DHT22;9269;50.838;12.094;2024-03-02T04:17:59;9.10;63.30
18287;DHT22;9269;50.838;12.094;2024-03-02T04:20:28;9.00;63.30
18287;DHT22;9269;50.838;12.094;2024-03-02T04:22:56;9.10;63.40
18287;DHT22;9269;50.838;12.094;2024-03-02T04:25:25;9.10;63.80
18287;DHT22;9269;50.838;12.094;2024-03-02T04:27:53;9.10;63.50
18287;DHT22;9269;50.838;12.094;2024-03-02T04:30:21;9.20;63.50
18287;DHT22;9269;50.838;12.094;2024-03-02T04:32:54;9.10;63.60
18287;DHT22;9269;50.838;12.094;2024-03-02T04:35:25;9.10;63.40
18287;DHT22;9269;50.838;12.094;2024-03-02T04:37:55;9.10;63.60
18287;DHT22;9269;50.838;12.094;2024-03-02T04:40:26;9.10;63.20
18287;DHT22;9269;50.838;12.094;2024-03-02T04:42:54;9.10;63.70
18287;DHT22;9269;50.838;12.094;2024-03-02T04:45:23;9.10;63.70
18287;DHT22;9269;50.838;12.094;2024-03-02T04:47:53;9.10;63.30
18287;DHT22;9269;50.838;12.094;2024-03-02T04:50:22;9.00;63.80
18287;DHT22;9269;50.838;12.094;2024-03-02T04:52:50;9.10;63.50
18287;DHT22;9269;50.838;12.094;2024-03-02T04:55:19;9.00;63.90
18287;DHT22;9269;50.838;12.094;2024-03-02T04:58:19;9.10;63.80
18287;DHT22;9269;50.838;12.094;2024-03-02T05:00:49;9.10;63.70
18287;DHT22;9269;50.838;12.094;2024-03-02T05:03:19;9.10;63.20
18287;DHT22;9269;50.838;12.094;2024-03-02T05:06:09;9.10;63.70
18287;DHT22;9269;50.838;12.094;2024-03-02T05:08:58;9.10;63.50
18287;DHT22;9269;50.838;12.094;2024-03-02T05:11:27;9.10;63.50
18287;DHT22;9269;50.838;12.094;2024-03-02T05:14:26;9.00;63.40
18287;DHT22;9269;50.838;12.094;2024-03-02T05:16:57;9.00;63.60
18287;DHT22;9269;50.838;12.094;2024-03-02T05:19:29;8.90;63.60
18287;DHT22;9269;50.838;12.094;2024-03-02T05:22:00;9.00;63.70
18287;DHT22;9269;50.838;12.094;2024-03-02T05:24:30;9.10;63.70
18287;DHT22;9269;50.838;12.094;2024-03-02T05:26:58;9.10;63.60
18287;DHT22;9269;50.838;12.094;2024-03-02T05:29:27;8.90;63.70
18287;DHT22;9269;50.838;12.094;2024-03-02T05:32:16;9.10;63.60
18287;DHT22;9269;50.838;12.094;2024-03-02T05:34:46;9.00;63.60
18287;DHT22;9269;50.838;12.094;2024-03-02T05:37:31;9.10;63.80
18287;DHT22;9269;50.838;12.094;2024-03-02T05:40:01;9.10;64.00
18287;DHT22;9269;50.838;12.094;2024-03-02T05:42:33;9.10;63.90
18287;DHT22;9269;50.838;12.094;2024-03-02T05:45:05;9.10;64.20
18287;DHT22;9269;50.838;12.094;2024-03-02T05:47:34;9.00;63.70
18287;DHT22;9269;50.838;12.094;2024-03-02T05:50:05;9.00;64.30
18287;DHT22;9269;50.838;12.094;2024-03-02T05:52:34;9.10;63.90
18287;DHT22;9269;50.838;12.094;2024-03-02T05:55:03;9.10;63.80
18287;DHT22;9269;50.838;12.094;2024-03-02T05:57:32;9.00;64.30
18287;DHT22;9269;50.838;12.094;2024-03-02T06:00:16;9.10;64.20
18287;DHT22;9269;50.838;12.094;2024-03-02T06:02:47;9.20;64.10
18287;DHT22;9269;50.838;12.094;2024-03-02T06:05:18;9.00;64.40
18287;DHT22;9269;50.838;12.094;2024-03-02T06:07:47;9.20;64.40
18287;DHT22;9269;50.838;12.094;2024-03-02T06:10:16;9.20;70.80
18287;DHT22;9269;50.838;12.094;2024-03-02T06:12:44;9.20;70.70
18287;DHT22;9269;50.838;12.094;2024-03-02T06:15:13;9.30;70.80
18287;DHT22;9269;50.838;12.094;2024-03-02T06:17:41;9.20;70.90
18287;DHT22;9269;50.838;12.094;2024-03-02T06:20:10;9.20;70.90
18287;DHT22;9269;50.838;12.094;2024-03-02T06:22:43;9.30;71.00
18287;DHT22;9269;50.838;12.094;2024-03-02T06:25:12;9.30;70.90
18287;DHT22;9269;50.838;12.094;2024-03-02T06:27:43;9.30;71.00
18287;DHT22;9269;50.838;12.094;2024-03-02T06:30:15;9.30;71.10
18287;DHT22;9269;50.838;12.094;2024-03-02T06:32:43;9.20;71.20
18287;DHT22;9269;50.838;12.094;2024-03-02T06:35:12;9.30;71.10
18287;DHT22;9269;50.838;12.094;2024-03-02T06:37:40;9.40;71.10
18287;DHT22;9269;50.838;12.094;2024-03-02T06:40:10;9.40;71.10
18287;DHT22;9269;50.838;12.094;2024-03-02T06:42:58;9.50;71.20
18287;DHT22;9269;50.838;12.094;2024-03-02T06:45:30;9.40;71.30
18287;DHT22;9269;50.838;12.094;2024-03-02T06:48:01;9.40;71.20
18287;DHT22;9269;50.838;12.094;2024-03-02T06:50:32;9.40;71.20
18287;DHT22;9269;50.838;12.094;2024-03-02T06:53:04;9.50;71.20
18287;DHT22;9269;50.838;12.094;2024-03-02T06:55:34;9.50;71.30
18287;DHT22;9269;50.838;12.094;2024-03-02T06:58:03;9.50;71.20
18287;DHT22;9269;50.838;12.094;2024-03-02T07:00:32;9.50;71.30
18287;DHT22;9269;50.838;12.094;2024-03-02T07:03:00;9.50;71.40
18287;DHT22;9269;50.838;12.094;2024-03-02T07:05:30;9.60;71.40
18287;DHT22;9269;50.838;12.094;2024-03-02T07:08:00;9.50;71.30
18287;DHT22;9269;50.838;12.094;2024-03-02T07:10:33;9.60;71.40
18287;DHT22;9269;50.838;12.094;2024-03-02T07:13:02;9.60;71.40
18287;DHT22;9269;50.838;12.094;2024-03-02T07:15:31;9.60;71.40
18287;DHT22;9269;50.838;12.094;2024-03-02T07:18:22;9.60;71.50
18287;DHT22;9269;50.838;12.094;2024-03-02T07:20:50;9.60;71.40
18287;DHT22;9269;50.838;12.094;2024-03-02T07:23:19;9.60;71.50
18287;DHT22;9269;50.838;12.094;2024-03-02T07:25:52;9.60;71.40
18287;DHT22;9269;50.838;12.094;2024-03-02T07:28:27;9.70;71.40
18287;DHT22;9269;50.838;12.094;2024-03-02T07:30:58;9.60;71.40
18287;DHT22;9269;50.838;12.094;2024-03-02T07:33:30;9.60;71.30
18287;DHT22;9269;50.838;12.094;2024-03-02T07:36:01;9.60;71.30
18287;DHT22;9269;50.838;12.094;2024-03-02T07:38:32;9.60;71.40
18287;DHT22;9269;50.838;12.094;2024-03-02T07:41:20;9.70;71.40
18287;DHT22;9269;50.838;12.094;2024-03-02T07:43:49;9.70;71.40
18287;DHT22;9269;50.838;12.094;2024-03-02T07:46:17;9.80;71.30
18287;DHT22;9269;50.838;12.094;2024-03-02T07:48:48;9.80;71.30
18287;DHT22;9269;50.838;12.094;2024-03-02T07:51:20;9.80;71.30
18287;DHT22;9269;50.838;12.094;2024-03-02T07:53:50;9.80;71.20
18287;DHT22;9269;50.838;12.094;2024-03-02T07:56:23;9.90;71.40
18287;DHT22;9269;50.838;12.094;2024-03-02T07:58:52;9.90;71.30
18287;DHT22;9269;50.838;12.094;2024-03-02T08:01:20;9.90;71.30
18287;DHT22;9269;50.838;12.094;2024-03-02T08:03:49;9.90;71.40
18287;DHT22;9269;50.838;12.094;2024-03-02T08:06:18;9.90;71.30
18287;DHT22;9269;50.838;12.094;2024-03-02T08:08:49;9.90;71.50
18287;DHT22;9269;50.838;12.094;2024-03-02T08:11:19;10.00;71.30
18287;DHT22;9269;50.838;12.094;2024-03-02T08:13:51;10.10;71.30
18287;DHT22;9269;50.838;12.094;2024-03-02T08:16:24;10.10;71.50
18287;DHT22;9269;50.838;12.094;2024-03-02T08:18:53;10.20;71.40
18287;DHT22;9269;50.838;12.094;2024-03-02T08:21:24;10.20;71.50
18287;DHT22;9269;50.838;12.094;2024-03-02T08:23:53;10.20;71.50
18287;DHT22;9269;50.838;12.094;2024-03-02T08:26:22;10.30;71.50
18287;DHT22;9269;50.838;12.094;2024-03-02T08:28:51;10.20;71.50
18287;DHT22;9269;50.838;12.094;2024-03-02T08:31:20;10.40;71.50
18287;DHT22;9269;50.838;12.094;2024-03-02T08:33:50;10.40;71.60
18287;DHT22;9269;50.838;12.094;2024-03-02T08:36:21;10.40;71.50
18287;DHT22;9269;50.838;12.094;2024-03-02T08:38:52;10.40;71.60
18287;DHT22;9269;50.838;12.094;2024-03-02T08:41:23;10.50;71.50
18287;DHT22;9269;50.838;12.094;2024-03-02T08:43:53;10.50;71.50
18287;DHT22;9269;50.838;12.094;2024-03-02T08:46:22;10.50;71.60
18287;DHT22;9269;50.838;12.094;2024-03-02T08:48:50;10.50;71.60
18287;DHT22;9269;50.838;12.094;2024-03-02T08:51:19;10.50;71.60
18287;DHT22;9269;50.838;12.094;2024-03-02T08:54:07;10.70;71.70
18287;DHT22;9269;50.838;12.094;2024-03-02T08:56:38;10.60;71.70
18287;DHT22;9269;50.838;12.094;2024-03-02T08:59:11;10.80;71.70
18287;DHT22;9269;50.838;12.094;2024-03-02T09:01:42;10.80;71.70
18287;DHT22;9269;50.838;12.094;2024-03-02T09:04:13;10.90;71.70
18287;DHT22;9269;50.838;12.094;2024-03-02T09:06:42;11.00;71.60
18287;DHT22;9269;50.838;12.094;2024-03-02T09:09:10;11.00;71.50
18287;DHT22;9269;50.838;12.094;2024-03-02T09:11:39;11.10;71.60
18287;DHT22;9269;50.838;12.094;2024-03-02T09:14:07;11.20;71.70
18287;DHT22;9269;50.838;12.094;2024-03-02T09:16:40;11.30;71.40
18287;DHT22;9269;50.838;12.094;2024-03-02T09:19:11;11.30;71.50
18287;DHT22;9269;50.838;12.094;2024-03-02T09:21:42;11.30;71.50
18287;DHT22;9269;50.838;12.094;2024-03-02T09:24:13;11.60;71.50
18287;DHT22;9269;50.838;12.094;2024-03-02T09:26:44;11.60;71.40
18287;DHT22;9269;50.838;12.094;2024-03-02T09:29:13;11.70;71.40
18287;DHT22;9269;50.838;12.094;2024-03-02T09:31:43;11.70;71.30
18287;DHT22;9269;50.838;12.094;2024-03-02T09:34:12;11.80;71.40
18287;DHT22;9269;50.838;12.094;2024-03-02T09:36:41;11.80;71.40
18287;DHT22;9269;50.838;12.094;2024-03-02T09:39:11;11.70;71.30
18287;DHT22;9269;50.838;12.094;2024-03-02T09:41:41;12.00;71.30
18287;DHT22;9269;50.838;12.094;2024-03-02T09:44:12;11.90;71.20
18287;DHT22;9269;50.838;12.094;2024-03-02T09:46:48;12.10;71.30
18287;DHT22;9269;50.838;12.094;2024-03-02T09:49:17;12.10;71.20
18287;DHT22;9269;50.838;12.094;2024-03-02T09:51:47;12.20;71.10
18287;DHT22;9269;50.838;12.094;2024-03-02T09:54:17;12.30;71.10
18287;DHT22;9269;50.838;12.094;2024-03-02T09:56:50;12.40;71.10
18287;DHT22;9269;50.838;12.094;2024-03-02T09:59:21;12.40;71.00
18287;DHT22;9269;50.838;12.094;2024-03-02T10:01:58;12.40;71.00
18287;DHT22;9269;50.838;12.094;2024-03-02T10:04:30;12.50;70.90
18287;DHT22;9269;50.838;12.094;2024-03-02T10:07:10;12.60;70.90
18287;DHT22;9269;50.838;12.094;2024-03-02T10:09:40;12.70;70.80
18287;DHT22;9269;50.838;12.094;2024-03-02T10:12:10;12.70;63.80
18287;DHT22;9269;50.838;12.094;2024-03-02T10:14:40;12.80;63.40
18287;DHT22;9269;50.838;12.094;2024-03-02T10:17:10;12.80;63.30
18287;DHT22;9269;50.838;12.094;2024-03-02T10:19:40;12.90;63.30
18287;DHT22;9269;50.838;12.094;2024-03-02T10:22:11;12.90;62.90
18287;DHT22;9269;50.838;12.094;2024-03-02T10:24:43;13.10;63.20
18287;DHT22;9269;50.838;12.094;2024-03-02T10:27:17;13.10;63.00
18287;DHT22;9269;50.838;12.094;2024-03-02T10:29:47;13.40;62.60
18287;DHT22;9269;50.838;12.094;2024-03-02T10:32:17;13.70;62.40
18287;DHT22;9269;50.838;12.094;2024-03-02T10:34:46;14.00;62.10
18287;DHT22;9269;50.838;12.094;2024-03-02T10:37:15;14.30;61.80
18287;DHT22;9269;50.838;12.094;2024-03-02T10:39:46;14.60;61.30
18287;DHT22;9269;50.838;12.094;2024-03-02T10:42:16;14.70;60.00
18287;DHT22;9269;50.838;12.094;2024-03-02T10:44:49;14.90;59.70
18287;DHT22;9269;50.838;12.094;2024-03-02T10:47:23;15.10;58.10
18287;DHT22;9269;50.838;12.094;2024-03-02T10:49:55;15.30;56.70
18287;DHT22;9269;50.838;12.094;2024-03-02T10:52:26;15.40;55.70
18287;DHT22;9269;50.838;12.094;2024-03-02T10:54:55;15.60;54.60
18287;DHT22;9269;50.838;12.094;2024-03-02T10:57:25;15.70;54.10
18287;DHT22;9269;50.838;12.094;2024-03-02T10:59:56;15.80;53.60
18287;DHT22;9269;50.838;12.094;2024-03-02T11:02:31;15.90;53.50
18287;DHT22;9269;50.838;12.094;2024-03-02T11:05:06;15.90;53.40
18287;DHT22;9269;50.838;12.094;2024-03-02T11:07:39;16.00;53.50
18287;DHT22;9269;50.838;12.094;2024-03-02T11:10:09;15.90;53.30
18287;DHT22;9269;50.838;12.094;2024-03-02T11:12:48;16.00;53.10
18287;DHT22;9269;50.838;12.094;2024-03-02T11:15:25;16.20;52.20
18287;DHT22;9269;50.838;12.094;2024-03-02T11:17:55;16.30;51.60
18287;DHT22;9269;50.838;12.094;2024-03-02T11:20:25;16.40;50.90
18287;DHT22;9269;50.838;12.094;2024-03-02T11:22:56;16.50;50.70
18287;DHT22;9269;50.838;12.094;2024-03-02T11:25:25;16.60;50.30
18287;DHT22;9269;50.838;12.094;2024-03-02T11:28:04;16.70;50.20
18287;DHT22;9269;50.838;12.094;2024-03-02T11:30:51;16.80;49.90
18287;DHT22;9269;50.838;12.094;2024-03-02T11:33:27;16.90;50.00
18287;DHT22;9269;50.838;12.094;2024-03-02T11:36:00;17.00;50.00
18287;DHT22;9269;50.838;12.094;2024-03-02T11:38:33;17.00;49.60
18287;DHT22;9269;50.838;12.094;2024-03-02T11:41:03;17.10;49.00
18287;DHT22;9269;50.838;12.094;2024-03-02T11:43:37;17.20;48.70
18287;DHT22;9269;50.838;12.094;2024-03-02T11:46:07;17.20;48.80
18287;DHT22;9269;50.838;12.094;2024-03-02T11:48:39;17.30;48.90
18287;DHT22;9269;50.838;12.094;2024-03-02T11:51:08;17.40;48.80
18287;DHT22;9269;50.838;12.094;2024-03-02T11:53:41;17.50;49.20
18287;DHT22;9269;50.838;12.094;2024-03-02T11:56:12;17.40;48.30
18287;DHT22;9269;50.838;12.094;2024-03-02T11:58:44;17.50;48.40
18287;DHT22;9269;50.838;12.094;2024-03-02T12:01:16;17.50;48.50
18287;DHT22;9269;50.838;12.094;2024-03-02T12:03:46;17.60;48.50
18287;DHT22;9269;50.838;12.094;2024-03-02T12:06:17;17.80;48.30
18287;DHT22;9269;50.838;12.094;2024-03-02T12:08:52;17.70;48.10
18287;DHT22;9269;50.838;12.094;2024-03-02T12:11:22;17.80;47.80
18287;DHT22;9269;50.838;12.094;2024-03-02T12:13:53;18.00;47.70
18287;DHT22;9269;50.838;12.094;2024-03-02T12:16:26;17.90;47.60
18287;DHT22;9269;50.838;12.094;2024-03-02T12:18:59;18.00;48.00
18287;DHT22;9269;50.838;12.094;2024-03-02T12:21:28;18.00;47.70
18287;DHT22;9269;50.838;12.094;2024-03-02T12:24:00;18.00;46.90
18287;DHT22;9269;50.838;12.094;2024-03-02T12:26:29;18.20;46.00
18287;DHT22;9269;50.838;12.094;2024-03-02T12:28:58;18.10;46.90
18287;DHT22;9269;50.838;12.094;2024-03-02T12:31:27;18.20;45.90
18287;DHT22;9269;50.838;12.094;2024-03-02T12:34:00;18.30;44.80
18287;DHT22;9269;50.838;12.094;2024-03-02T12:36:37;18.40;44.40
18287;DHT22;9269;50.838;12.094;2024-03-02T12:39:07;18.40;45.00
18287;DHT22;9269;50.838;12.094;2024-03-02T12:41:39;18.40;45.00
18287;DHT22;9269;50.838;12.094;2024-03-02T12:44:09;18.50;44.70
18287;DHT22;9269;50.838;12.094;2024-03-02T12:46:37;18.60;44.20
18287;DHT22;9269;50.838;12.094;2024-03-02T12:49:09;18.60;44.70
18287;DHT22;9269;50.838;12.094;2024-03-02T12:51:39;18.70;44.30
18287;DHT22;9269;50.838;12.094;2024-03-02T12:54:26;18.70;43.90
18287;DHT22;9269;50.838;12.094;2024-03-02T12:56:58;18.60;44.30
18287;DHT22;9269;50.838;12.094;2024-03-02T12:59:28;18.70;43.80
18287;DHT22;9269;50.838;12.094;2024-03-02T13:01:59;18.70;43.90
18287;DHT22;9269;50.838;12.094;2024-03-02T13:04:31;18.70;43.50
18287;DHT22;9269;50.838;12.094;2024-03-02T13:06:59;18.80;43.20
18287;DHT22;9269;50.838;12.094;2024-03-02T13:09:29;18.80;43.40
18287;DHT22;9269;50.838;12.094;2024-03-02T13:11:58;18.70;43.80
18287;DHT22;9269;50.838;12.094;2024-03-02T13:14:27;18.70;43.60
18287;DHT22;9269;50.838;12.094;2024-03-02T13:17:02;18.90;42.70
18287;DHT22;9269;50.838;12.094;2024-03-02T13:19:35;18.80;42.40
18287;DHT22;9269;50.838;12.094;2024-03-02T13:22:05;18.90;42.00
18287;DHT22;9269;50.838;12.094;2024-03-02T13:24:36;18.90;42.30
18287;DHT22;9269;50.838;12.094;2024-03-02T13:27:04;18.90;41.80
18287;DHT22;9269;50.838;12.094;2024-03-02T13:29:33;18.90;42.00
18287;DHT22;9269;50.838;12.094;2024-03-02T13:32:01;18.90;41.90
18287;DHT22;9269;50.838;12.094;2024-03-02T13:34:29;18.90;41.50
18287;DHT22;9269;50.838;12.094;2024-03-02T13:36:59;18.90;42.00
18287;DHT22;9269;50.838;12.094;2024-03-02T13:39:30;18.90;41.20
18287;DHT22;9269;50.838;12.094;2024-03-02T13:42:02;18.90;40.90
18287;DHT22;9269;50.838;12.094;2024-03-02T13:44:36;18.90;40.90
18287;DHT22;9269;50.838;12.094;2024-03-02T13:47:07;18.90;41.50
18287;DHT22;9269;50.838;12.094;2024-03-02T13:49:35;18.80;41.20
18287;DHT22;9269;50.838;12.094;2024-03-02T13:52:07;18.70;40.80
18287;DHT22;9269;50.838;12.094;2024-03-02T13:54:40;18.90;41.50
18287;DHT22;9269;50.838;12.094;2024-03-02T13:57:10;18.70;41.60
18287;DHT22;9269;50.838;12.094;2024-03-02T13:59:45;18.80;40.90
18287;DHT22;9269;50.838;12.094;2024-03-02T14:02:15;18.80;39.90
18287;DHT22;9269;50.838;12.094;2024-03-02T14:04:44;18.70;40.00
18287;DHT22;9269;50.838;12.094;2024-03-02T14:07:14;18.60;40.60
18287;DHT22;9269;50.838;12.094;2024-03-02T14:09:45;18.70;40.20
18287;DHT22;9269;50.838;12.094;2024-03-02T14:12:14;18.70;40.90
18287;DHT22;9269;50.838;12.094;2024-03-02T14:14:42;18.70;40.30
18287;DHT22;9269;50.838;12.094;2024-03-02T14:17:11;18.70;39.80
18287;DHT22;9269;50.838;12.094;2024-03-02T14:19:42;18.60;40.50
18287;DHT22;9269;50.838;12.094;2024-03-02T14:22:14;18.60;40.50
18287;DHT22;9269;50.838;12.094;2024-03-02T14:24:47;18.50;40.70
18287;DHT22;9269;50.838;12.094;2024-03-02T14:27:19;18.40;40.50
18287;DHT22;9269;50.838;12.094;2024-03-02T14:30:08;18.50;39.90
18287;DHT22;9269;50.838;12.094;2024-03-02T14:32:37;18.40;39.60
18287;DHT22;9269;50.838;12.094;2024-03-02T14:35:06;18.40;39.80
18287;DHT22;9269;50.838;12.094;2024-03-02T14:37:39;18.40;39.90
18287;DHT22;9269;50.838;12.094;2024-03-02T14:40:09;18.30;40.40
18287;DHT22;9269;50.838;12.094;2024-03-02T14:42:38;18.30;40.20
18287;DHT22;9269;50.838;12.094;2024-03-02T14:45:09;18.20;40.00
18287;DHT22;9269;50.838;12.094;2024-03-02T14:47:39;18.20;39.30
18287;DHT22;9269;50.838;12.094;2024-03-02T14:50:11;18.20;39.40
18287;DHT22;9269;50.838;12.094;2024-03-02T14:52:41;18.20;39.80
18287;DHT22;9269;50.838;12.094;2024-03-02T14:55:12;18.20;40.20
18287;DHT22;9269;50.838;12.094;2024-03-02T14:57:41;18.10;41.30
18287;DHT22;9269;50.838;12.094;2024-03-02T15:00:11;18.00;41.40
18287;DHT22;9269;50.838;12.094;2024-03-02T15:02:40;18.00;41.40
18287;DHT22;9269;50.838;12.094;2024-03-02T15:05:28;18.00;40.90
18287;DHT22;9269;50.838;12.094;2024-03-02T15:08:00;17.90;40.80
18287;DHT22;9269;50.838;12.094;2024-03-02T15:10:34;17.90;40.20
18287;DHT22;9269;50.838;12.094;2024-03-02T15:13:06;17.90;40.20
18287;DHT22;9269;50.838;12.094;2024-03-02T15:15:37;17.70;40.20
18287;DHT22;9269;50.838;12.094;2024-03-02T15:18:06;17.80;40.00
18287;DHT22;9269;50.838;12.094;2024-03-02T15:20:35;17.70;40.90
18287;DHT22;9269;50.838;12.094;2024-03-02T15:23:05;17.60;40.70
18287;DHT22;9269;50.838;12.094;2024-03-02T15:25:34;17.40;40.60
18287;DHT22;9269;50.838;12.094;2024-03-02T15:28:05;17.50;40.90
18287;DHT22;9269;50.838;12.094;2024-03-02T15:30:34;17.50;41.20
18287;DHT22;9269;50.838;12.094;2024-03-02T15:33:06;17.50;40.80
18287;DHT22;9269;50.838;12.094;2024-03-02T15:35:36;17.40;40.50
18287;DHT22;9269;50.838;12.094;2024-03-02T15:38:06;17.40;40.60
18287;DHT22;9269;50.838;12.094;2024-03-02T15:40:51;17.30;40.30
18287;DHT22;9269;50.838;12.094;2024-03-02T15:43:36;17.20;40.70
18287;DHT22;9269;50.838;12.094;2024-03-02T15:46:06;17.20;40.60
18287;DHT22;9269;50.838;12.094;2024-03-02T15:48:40;17.10;40.70
18287;DHT22;9269;50.838;12.094;2024-03-02T15:51:09;17.00;41.20
18287;DHT22;9269;50.838;12.094;2024-03-02T15:53:43;16.90;41.20
18287;DHT22;9269;50.838;12.094;2024-03-02T15:56:14;16.90;41.10
18287;DHT22;9269;50.838;12.094;2024-03-02T15:58:45;16.90;41.60
18287;DHT22;9269;50.838;12.094;2024-03-02T16:01:14;16.80;41.60
18287;DHT22;9269;50.838;12.094;2024-03-02T16:03:42;16.80;41.40
18287;DHT22;9269;50.838;12.094;2024-03-02T16:06:11;16.70;41.20
18287;DHT22;9269;50.838;12.094;2024-03-02T16:08:39;16.70;41.20